Αρχική σελίδα
METAR-TAF:

METAR-TAF

Αεροδρόμια :

Florianópolis, Σάντα Καταρίνα, Βραζιλία

γεωγραφικό πλάτος: 27-40S, γεωγραφικό μήκος: 048-33W, υψόμετρο: 5 μ

Παρών καιρός

Η αναφορά έγινε 55 λεπτά πριν, στις 11:00 UTC
Άνεμος 2 kt από ΝΔ
Θερμοκρασία 20°C
Υγρασία 78%
Πίεση 1020 hPa
Ορατότητα 10 χλμ και άνω
Αρκετά νέφη σε ύψος 4000 πόδια

METAR: SBFL 221100Z 22002KT 9999 BKN040 20/16 Q1020

Χρόνος: 08:55 (11:55 UTC)

Πρόγνωση Καιρού

Η αναφορά έγινε 2 ώρες και 10 λεπτά πριν, στις 09:45 UTC
Η πρόγνωση ισχύει από τις 22 στις 12 UTC έως τις 23 στις 12 UTC
Άνεμος 7 kt από Ν
Ορατότητα 10 χλμ και άνω
Λίγα νέφη σε ύψος 3000 πόδια
Καθιστάμενος
από 22 στις 16 UTC έως τις 22 στις 18 UTC
Άνεμος 8 kt από Α
Αρκετά νέφη σε ύψος 3000 πόδια

TAF: SBFL 220945Z 2212/2312 18007KT 9999 FEW030 TX25/2218Z TN19/2308Z BECMG 2216/2218 10008KT BKN030 RMK PEB

Μετεωρολογικές αναφορές και προγνώσεις για περισσότερα από 4000 αεροδρόμια (δελτία METAR και TAF).

Οι διαθέσιμοι σταθμοί απεικονίζονται στο χάρτη με κίτρινες και κόκκινες κουκκίδες.

Μετακινήστε το ποντίκι πάνω από τις κουκκίδες για να δείτε το όνομα του σταθμού.

Στη συνέχεια, κάντε κλικ για να δείτε τις μετεωρολογικές αναφορές και τις προγνώσεις καιρού.

Για να αλλάξετε το χάρτη: κάντε κλικ στα πράσινα κουμπιά με τον μαύρο σταυρό για να ζουμάρετε, στο πράσινο κουμπί με την παύλα για να αφαιρέσετε το ζουμ ή στα πράσινα βέλη για να αντιπαραβάλλετε χάρτες.


METAR-TAF: